KHKS/HKS METAR and TAF weather

Enter ICAO airport designator
Station Type Date Time Source
KHKS METAR 2021/03/03 01:53 UTC NOAA

KHKS 030153Z 36005KT 10SM SCT013 OVC032 06/02 A3018 RMK AO2 SLP216 T00560022


Station Type Date Time Source
KHKS Decoded METAR 2021/03/03 01:53 UTC NOAA

HAWKINS FIELD, MS, United States (KHKS) 32-20N 090-13W 108M
Mar 02, 2021 - 08:53 PM EST / 2021.03.03 0153 UTC
Wind: from the N (360 degrees) at 6 MPH (5 KT):0
Visibility: 10 mile(s):0
Sky conditions: overcast
Temperature: 42.1 F (5.6 C)
Dew Point: 36.0 F (2.2 C)
Relative Humidity: 78%
Pressure (altimeter): 30.18 in. Hg (1022 hPa)
ob: KHKS 030153Z 36005KT 10SM SCT013 OVC032 06/02 A3018 RMK AO2 SLP216 T00560022
cycle: 2

Station Type Date Time Source
KHKS TAF 2021/03/02 18:22 UTC NOAA

TAF KHKS 021720Z 0218/0318 01005KT 3SM -SHRA BR OVC015
TEMPO 0300/0304 BKN007
FM030400 35005KT P6SM BKN015
FM031200 35006KT P6SM SKC

Example: see airport list